createdAt,value
2023-04-29T00:00:01.752Z,11.85
2023-04-29T00:01:01.745Z,11.83
2023-04-29T00:02:01.759Z,11.83
2023-04-29T00:03:01.924Z,11.82
2023-04-29T00:04:02.051Z,11.82
2023-04-29T00:05:02.019Z,11.80
2023-04-29T00:06:01.865Z,11.80
2023-04-29T00:07:01.656Z,11.79
2023-04-29T00:08:01.657Z,11.79
2023-04-29T00:09:01.634Z,11.78
2023-04-29T00:10:01.618Z,11.79
2023-04-29T00:11:01.628Z,11.78
2023-04-29T00:12:01.587Z,11.76
2023-04-29T00:13:01.603Z,11.76
2023-04-29T00:14:01.569Z,11.75
2023-04-29T00:15:01.565Z,11.75
2023-04-29T00:16:01.736Z,11.75
2023-04-29T00:17:01.594Z,11.75
2023-04-29T00:18:01.595Z,11.76
2023-04-29T00:19:01.517Z,11.75
2023-04-29T00:20:01.503Z,11.76
2023-04-29T00:21:01.504Z,11.76
2023-04-29T00:22:01.500Z,11.76
2023-04-29T00:23:01.454Z,11.76
2023-04-29T00:24:01.432Z,11.75
2023-04-29T00:25:01.421Z,11.76
2023-04-29T00:26:01.424Z,11.76
2023-04-29T00:27:01.436Z,11.76
2023-04-29T00:28:01.412Z,11.76
2023-04-29T00:29:01.423Z,11.75
2023-04-29T00:30:01.360Z,11.76
2023-04-29T00:31:01.416Z,11.75
2023-04-29T00:32:01.350Z,11.73
2023-04-29T00:33:01.369Z,11.75
2023-04-29T00:34:01.345Z,11.73
2023-04-29T00:35:01.289Z,11.72
2023-04-29T00:36:01.280Z,11.72
2023-04-29T00:37:01.296Z,11.69
2023-04-29T00:38:01.265Z,11.67
2023-04-29T00:39:01.271Z,11.69
2023-04-29T00:40:01.227Z,11.65
2023-04-29T00:41:01.235Z,11.65
2023-04-29T00:42:01.246Z,11.65
2023-04-29T00:43:01.212Z,11.62
2023-04-29T00:44:01.174Z,11.61
2023-04-29T00:45:01.149Z,11.64
2023-04-29T00:46:01.222Z,11.62
2023-04-29T00:47:01.138Z,11.62
2023-04-29T00:48:01.210Z,11.61
2023-04-29T00:49:01.115Z,11.62
2023-04-29T00:50:01.115Z,11.61
2023-04-29T00:51:01.087Z,11.61
2023-04-29T00:52:01.063Z,11.58
2023-04-29T00:53:01.123Z,11.57
2023-04-29T00:54:01.063Z,11.55
2023-04-29T00:55:01.039Z,11.54
2023-04-29T00:56:01.002Z,11.52
2023-04-29T00:57:00.991Z,11.49
2023-04-29T00:58:00.993Z,11.49
2023-04-29T00:59:00.996Z,11.47
2023-04-29T01:00:00.974Z,11.46
2023-04-29T01:01:00.952Z,11.44
2023-04-29T01:02:01.021Z,11.43
2023-04-29T01:03:00.962Z,11.40
2023-04-29T01:04:01.138Z,11.40
2023-04-29T01:05:00.907Z,11.40
2023-04-29T01:06:00.925Z,11.36
2023-04-29T01:07:00.870Z,11.37
2023-04-29T01:08:00.867Z,11.39
2023-04-29T01:09:00.836Z,11.37
2023-04-29T01:10:00.845Z,11.37
2023-04-29T01:11:00.814Z,11.36
2023-04-29T01:12:00.794Z,11.35
2023-04-29T01:13:00.786Z,11.33
2023-04-29T01:14:00.776Z,11.29
2023-04-29T01:15:00.767Z,11.27
2023-04-29T01:16:00.832Z,11.25
2023-04-29T01:17:00.745Z,11.24
2023-04-29T01:18:00.779Z,11.22
2023-04-29T01:19:00.708Z,11.21
2023-04-29T01:20:00.698Z,11.19
2023-04-29T01:21:00.728Z,11.19
2023-04-29T01:22:00.745Z,11.17
2023-04-29T01:23:00.656Z,11.17
2023-04-29T01:24:00.686Z,11.17
2023-04-29T01:25:00.634Z,11.15
2023-04-29T01:26:00.610Z,11.15
2023-04-29T01:27:00.623Z,11.14
2023-04-29T01:28:00.592Z,11.14
2023-04-29T01:29:00.579Z,11.10
2023-04-29T01:30:00.567Z,11.09
2023-04-29T01:31:00.578Z,11.10
2023-04-29T01:32:00.552Z,11.09
2023-04-29T01:33:00.597Z,11.09
2023-04-29T01:34:00.519Z,11.07
2023-04-29T01:35:00.510Z,11.09
2023-04-29T01:36:00.506Z,11.09
2023-04-29T01:37:00.468Z,11.07
2023-04-29T01:38:00.457Z,11.09
2023-04-29T01:39:00.466Z,11.06
2023-04-29T01:40:00.431Z,11.06
2023-04-29T01:41:00.449Z,11.06
2023-04-29T01:42:00.399Z,11.07
2023-04-29T01:43:00.431Z,11.03
2023-04-29T01:44:00.388Z,11.00
2023-04-29T01:45:00.379Z,10.97
2023-04-29T01:46:00.347Z,10.96
2023-04-29T01:47:00.456Z,10.96
2023-04-29T01:48:00.433Z,10.94
2023-04-29T01:49:00.353Z,10.91
2023-04-29T01:50:00.304Z,10.91
2023-04-29T01:51:00.289Z,10.91
2023-04-29T01:52:00.309Z,10.91
2023-04-29T01:53:00.252Z,10.91
2023-04-29T01:54:00.270Z,10.91
2023-04-29T01:55:00.241Z,10.89
2023-04-29T01:56:00.209Z,10.89
2023-04-29T01:57:00.213Z,10.88
2023-04-29T01:58:00.199Z,10.88
2023-04-29T01:59:00.197Z,10.86
2023-04-29T02:00:00.262Z,10.86
2023-04-29T02:01:00.217Z,10.88
2023-04-29T02:02:00.142Z,10.88
2023-04-29T02:03:00.286Z,10.85
2023-04-29T02:04:00.307Z,10.85
2023-04-29T02:05:00.270Z,10.82
2023-04-29T02:06:00.151Z,10.84
2023-04-29T02:07:00.202Z,10.81
2023-04-29T02:08:00.106Z,10.78
2023-04-29T02:09:00.042Z,10.78
2023-04-29T02:10:00.100Z,10.76
2023-04-29T02:11:00.042Z,10.71
2023-04-29T02:12:00.008Z,10.71
2023-04-29T02:13:00.006Z,10.73
2023-04-29T02:13:59.973Z,10.70
2023-04-29T02:14:59.995Z,10.71
2023-04-29T02:16:00.073Z,10.71
2023-04-29T02:16:59.944Z,10.71
2023-04-29T02:17:59.992Z,10.70
2023-04-29T02:18:59.913Z,10.68
2023-04-29T02:19:59.902Z,10.68
2023-04-29T02:20:59.883Z,10.68
2023-04-29T02:21:59.923Z,10.67
2023-04-29T02:22:59.901Z,10.66
2023-04-29T02:23:59.958Z,10.66
2023-04-29T02:24:59.830Z,10.64
2023-04-29T02:25:59.837Z,10.61
2023-04-29T02:26:59.829Z,10.61
2023-04-29T02:27:59.799Z,10.59
2023-04-29T02:28:59.822Z,10.53
2023-04-29T02:29:59.781Z,10.53
2023-04-29T02:30:59.771Z,10.47
2023-04-29T02:31:59.835Z,10.45
2023-04-29T02:32:59.777Z,10.42
2023-04-29T02:33:59.742Z,10.41
2023-04-29T02:34:59.740Z,10.40
2023-04-29T02:35:59.836Z,10.38
2023-04-29T02:36:59.699Z,10.36
2023-04-29T02:37:59.677Z,10.34
2023-04-29T02:38:59.657Z,10.33
2023-04-29T02:39:59.634Z,10.33
2023-04-29T02:40:59.635Z,10.30
2023-04-29T02:41:59.669Z,10.29
2023-04-29T02:42:59.599Z,10.27
2023-04-29T02:43:59.589Z,10.26
2023-04-29T02:44:59.732Z,10.27
2023-04-29T02:45:59.620Z,10.25
2023-04-29T02:46:59.549Z,10.25
2023-04-29T02:47:59.555Z,10.26
2023-04-29T02:48:59.528Z,10.26
2023-04-29T02:49:59.533Z,10.26
2023-04-29T02:50:59.521Z,10.27
2023-04-29T02:51:59.491Z,10.27
2023-04-29T02:52:59.457Z,10.26
2023-04-29T02:53:59.493Z,10.25
2023-04-29T02:54:59.472Z,10.25
2023-04-29T02:55:59.466Z,10.23
2023-04-29T02:56:59.426Z,10.23
2023-04-29T02:57:59.436Z,10.22
2023-04-29T02:58:59.417Z,10.20
2023-04-29T02:59:59.387Z,10.22
2023-04-29T03:00:59.435Z,10.22
2023-04-29T03:01:59.347Z,10.22
2023-04-29T03:02:59.432Z,10.23
2023-04-29T03:03:59.537Z,10.22
2023-04-29T03:04:59.330Z,10.22
2023-04-29T03:05:59.346Z,10.20
2023-04-29T03:06:59.317Z,10.20
2023-04-29T03:07:59.356Z,10.18
2023-04-29T03:08:59.331Z,10.20
2023-04-29T03:09:59.251Z,10.18
2023-04-29T03:10:59.242Z,10.17
2023-04-29T03:11:59.232Z,10.17
2023-04-29T03:12:59.231Z,10.17
2023-04-29T03:13:59.198Z,10.15
2023-04-29T03:14:59.172Z,10.14
2023-04-29T03:15:59.235Z,10.12
2023-04-29T03:16:59.225Z,10.12
2023-04-29T03:17:59.203Z,10.12
2023-04-29T03:18:59.186Z,10.12
2023-04-29T03:19:59.129Z,10.12
2023-04-29T03:20:59.129Z,10.12
2023-04-29T03:21:59.079Z,10.12
2023-04-29T03:22:59.082Z,10.12
2023-04-29T03:23:59.058Z,10.14
2023-04-29T03:24:59.055Z,10.12
2023-04-29T03:25:59.082Z,10.14
2023-04-29T03:26:59.013Z,10.12
2023-04-29T03:27:59.036Z,10.12
2023-04-29T03:28:59.014Z,10.12
2023-04-29T03:29:58.972Z,10.11
2023-04-29T03:30:59.004Z,10.09
2023-04-29T03:31:58.945Z,10.08
2023-04-29T03:32:58.976Z,10.08
2023-04-29T03:33:58.951Z,10.08
2023-04-29T03:34:58.938Z,10.07
2023-04-29T03:35:58.919Z,10.05
2023-04-29T03:36:58.908Z,10.04
2023-04-29T03:37:58.871Z,10.01
2023-04-29T03:38:58.883Z,9.97
2023-04-29T03:39:58.893Z,9.99
2023-04-29T03:40:58.924Z,9.96
2023-04-29T03:41:58.827Z,9.94
2023-04-29T03:42:58.799Z,9.93
2023-04-29T03:43:58.822Z,9.93
2023-04-29T03:44:58.781Z,9.93
2023-04-29T03:45:58.927Z,9.91
2023-04-29T03:46:58.762Z,9.91
2023-04-29T03:47:58.774Z,9.91
2023-04-29T03:48:58.718Z,9.91
2023-04-29T03:49:58.754Z,9.93
2023-04-29T03:50:58.706Z,9.90
2023-04-29T03:51:58.693Z,9.91
2023-04-29T03:52:58.677Z,9.91
2023-04-29T03:53:58.681Z,9.91
2023-04-29T03:54:58.643Z,9.91
2023-04-29T03:55:58.817Z,9.90
2023-04-29T03:56:58.621Z,9.87
2023-04-29T03:57:58.618Z,9.87
2023-04-29T03:58:58.606Z,9.87
2023-04-29T03:59:58.584Z,9.86
2023-04-29T04:00:58.592Z,9.86
2023-04-29T04:01:58.647Z,9.86
2023-04-29T04:02:58.628Z,9.87
2023-04-29T04:03:58.638Z,9.86
2023-04-29T04:04:58.527Z,9.87
2023-04-29T04:05:58.490Z,9.87
2023-04-29T04:06:58.522Z,9.86
2023-04-29T04:07:58.473Z,9.86
2023-04-29T04:08:58.478Z,9.86
2023-04-29T04:09:58.457Z,9.84
2023-04-29T04:10:58.431Z,9.83
2023-04-29T04:11:58.419Z,9.81
2023-04-29T04:12:58.433Z,9.79
2023-04-29T04:13:58.395Z,9.81
2023-04-29T04:14:58.378Z,9.79
2023-04-29T04:15:58.391Z,9.79
2023-04-29T04:16:58.356Z,9.79
2023-04-29T04:17:58.379Z,9.79
2023-04-29T04:18:58.364Z,9.81
2023-04-29T04:19:58.312Z,9.79
2023-04-29T04:20:58.330Z,9.81
2023-04-29T04:21:58.287Z,9.79
2023-04-29T04:22:58.304Z,9.81
2023-04-29T04:23:58.267Z,9.81
2023-04-29T04:24:58.275Z,9.79
2023-04-29T04:25:58.281Z,9.81
2023-04-29T04:26:58.229Z,9.78
2023-04-29T04:27:58.205Z,9.81
2023-04-29T04:28:58.196Z,9.79
2023-04-29T04:29:58.212Z,9.78
2023-04-29T04:30:58.170Z,9.78
2023-04-29T04:31:58.212Z,9.79
2023-04-29T04:32:58.188Z,9.79
2023-04-29T04:33:58.139Z,9.79
2023-04-29T04:34:58.145Z,9.78
2023-04-29T04:35:58.124Z,9.79
2023-04-29T04:36:58.090Z,9.81
2023-04-29T04:37:58.103Z,9.81
2023-04-29T04:38:58.095Z,9.81
2023-04-29T04:39:58.092Z,9.81
2023-04-29T04:40:58.076Z,9.83
2023-04-29T04:41:58.038Z,9.83
2023-04-29T04:42:58.023Z,9.83
2023-04-29T04:43:58.011Z,9.84
2023-04-29T04:44:58.022Z,9.84
2023-04-29T04:45:58.006Z,9.83
2023-04-29T04:46:57.965Z,9.83
2023-04-29T04:47:58.014Z,9.84
2023-04-29T04:48:57.947Z,9.83
2023-04-29T04:49:57.919Z,9.83
2023-04-29T04:50:58.102Z,9.86
2023-04-29T04:51:57.896Z,9.84
2023-04-29T04:52:57.886Z,9.83
2023-04-29T04:53:57.876Z,9.83
2023-04-29T04:54:57.854Z,9.79
2023-04-29T04:55:57.865Z,9.78
2023-04-29T04:56:58.092Z,9.78
2023-04-29T04:57:57.810Z,9.78
2023-04-29T04:58:57.817Z,9.78
2023-04-29T04:59:57.796Z,9.78
2023-04-29T05:00:57.983Z,9.78
2023-04-29T05:01:57.807Z,9.78
2023-04-29T05:02:57.835Z,9.78
2023-04-29T05:03:57.800Z,9.78
2023-04-29T05:04:57.725Z,9.78
2023-04-29T05:05:57.753Z,9.78
2023-04-29T05:06:57.699Z,9.79
2023-04-29T05:07:57.696Z,9.79
2023-04-29T05:08:57.671Z,9.79
2023-04-29T05:09:57.661Z,9.81
2023-04-29T05:10:57.665Z,9.79
2023-04-29T05:11:57.659Z,9.81
2023-04-29T05:12:57.681Z,9.79
2023-04-29T05:13:57.624Z,9.81
2023-04-29T05:14:57.591Z,9.79
2023-04-29T05:15:57.764Z,9.79
2023-04-29T05:16:57.667Z,9.81
2023-04-29T05:17:57.640Z,9.81
2023-04-29T05:18:57.546Z,9.81
2023-04-29T05:19:57.535Z,9.83
2023-04-29T05:20:57.546Z,9.84
2023-04-29T05:21:57.500Z,9.83
2023-04-29T05:22:57.487Z,9.83
2023-04-29T05:23:57.491Z,9.83
2023-04-29T05:24:57.461Z,9.83
2023-04-29T05:25:57.455Z,9.84
2023-04-29T05:26:57.455Z,9.84
2023-04-29T05:27:57.435Z,9.86
2023-04-29T05:28:57.446Z,9.86
2023-04-29T05:29:57.408Z,9.86
2023-04-29T05:30:57.424Z,9.89
2023-04-29T05:31:57.373Z,9.87
2023-04-29T05:32:57.389Z,9.86
2023-04-29T05:33:57.344Z,9.87
2023-04-29T05:34:57.395Z,9.87
2023-04-29T05:35:57.309Z,9.87
2023-04-29T05:36:57.338Z,9.86
2023-04-29T05:37:58.179Z,9.84
2023-04-29T05:38:57.273Z,9.86
2023-04-29T05:39:57.575Z,9.84
2023-04-29T05:40:57.280Z,9.84
2023-04-29T05:41:57.248Z,9.84
2023-04-29T05:42:57.258Z,9.86
2023-04-29T05:43:57.239Z,9.86
2023-04-29T05:44:57.230Z,9.87
2023-04-29T05:45:57.328Z,9.86
2023-04-29T05:46:57.175Z,9.89
2023-04-29T05:47:57.218Z,9.90
2023-04-29T05:48:57.160Z,9.90
2023-04-29T05:49:57.177Z,9.90
2023-04-29T05:50:57.145Z,9.91
2023-04-29T05:51:57.136Z,9.93
2023-04-29T05:52:57.099Z,9.93
2023-04-29T05:53:57.113Z,9.94
2023-04-29T05:54:57.065Z,9.96
2023-04-29T05:55:57.049Z,9.96
2023-04-29T05:56:57.091Z,9.96
2023-04-29T05:57:57.040Z,9.97
2023-04-29T05:58:57.019Z,9.96
2023-04-29T05:59:57.014Z,9.94
2023-04-29T06:00:58.166Z,9.96
2023-04-29T06:01:57.166Z,9.96
2023-04-29T06:02:59.052Z,9.96
2023-04-29T06:03:57.211Z,9.96
2023-04-29T06:04:57.287Z,9.97
2023-04-29T06:05:57.213Z,9.96
2023-04-29T06:06:56.915Z,9.97
2023-04-29T06:07:57.888Z,9.97
2023-04-29T06:08:57.035Z,9.96
2023-04-29T06:09:56.909Z,9.97
2023-04-29T06:10:56.887Z,9.99
2023-04-29T06:11:56.876Z,10.01
2023-04-29T06:12:56.838Z,10.02
2023-04-29T06:13:56.874Z,10.02
2023-04-29T06:14:56.894Z,10.01
2023-04-29T06:15:56.819Z,10.02
2023-04-29T06:16:57.730Z,10.01
2023-04-29T06:17:56.889Z,10.04
2023-04-29T06:18:56.757Z,10.04
2023-04-29T06:19:56.768Z,10.04
2023-04-29T06:20:56.747Z,10.05
2023-04-29T06:21:56.721Z,10.05
2023-04-29T06:22:56.699Z,10.07
2023-04-29T06:23:56.700Z,10.08
2023-04-29T06:24:56.702Z,10.07
2023-04-29T06:25:56.669Z,10.05
2023-04-29T06:26:56.672Z,10.07
2023-04-29T06:27:56.635Z,10.02
2023-04-29T06:28:56.619Z,10.05
2023-04-29T06:29:56.629Z,10.04
2023-04-29T06:30:56.593Z,10.05
2023-04-29T06:31:56.623Z,10.04
2023-04-29T06:32:56.597Z,10.07
2023-04-29T06:33:56.564Z,10.07
2023-04-29T06:34:56.577Z,10.08
2023-04-29T06:35:56.556Z,10.09
2023-04-29T06:36:56.538Z,10.09
2023-04-29T06:37:56.523Z,10.09
2023-04-29T06:38:56.517Z,10.11
2023-04-29T06:39:56.479Z,10.11
2023-04-29T06:40:56.491Z,10.12
2023-04-29T06:41:56.490Z,10.11
2023-04-29T06:42:56.482Z,10.14
2023-04-29T06:43:56.461Z,10.14
2023-04-29T06:44:56.418Z,10.12
2023-04-29T06:45:56.388Z,10.11
2023-04-29T06:46:56.400Z,10.11
2023-04-29T06:47:56.444Z,10.11
2023-04-29T06:48:56.397Z,10.14
2023-04-29T06:49:56.334Z,10.14
2023-04-29T06:50:56.346Z,10.14
2023-04-29T06:51:56.329Z,10.12
2023-04-29T06:52:56.315Z,10.14
2023-04-29T06:53:56.331Z,10.15
2023-04-29T06:54:56.276Z,10.14
2023-04-29T06:55:56.262Z,10.17
2023-04-29T06:56:56.253Z,10.17
2023-04-29T06:57:56.227Z,10.17
2023-04-29T06:58:56.218Z,10.18
2023-04-29T06:59:56.235Z,10.14
2023-04-29T07:00:56.226Z,10.12
2023-04-29T07:01:56.455Z,10.14
2023-04-29T07:02:56.233Z,10.14
2023-04-29T07:03:56.509Z,10.14
2023-04-29T07:04:56.340Z,10.15
2023-04-29T07:05:56.169Z,10.15
2023-04-29T07:06:56.139Z,10.15
2023-04-29T07:07:56.125Z,10.17
2023-04-29T07:08:57.140Z,10.14
2023-04-29T07:09:56.223Z,10.12
2023-04-29T07:10:56.065Z,10.12
2023-04-29T07:11:56.112Z,10.11
2023-04-29T07:12:56.040Z,10.11
2023-04-29T07:13:56.038Z,10.11
2023-04-29T07:14:56.009Z,10.11
2023-04-29T07:15:56.013Z,10.08
2023-04-29T07:16:56.072Z,10.08
2023-04-29T07:17:56.013Z,10.07
2023-04-29T07:18:55.969Z,10.08
2023-04-29T07:19:55.945Z,10.08
2023-04-29T07:20:55.951Z,10.07
2023-04-29T07:21:55.937Z,10.05
2023-04-29T07:22:55.936Z,10.04
2023-04-29T07:23:55.925Z,10.02
2023-04-29T07:24:55.880Z,10.02
2023-04-29T07:25:55.876Z,10.01
2023-04-29T07:26:55.885Z,10.01
2023-04-29T07:27:55.872Z,9.99
2023-04-29T07:28:55.835Z,9.97
2023-04-29T07:29:55.826Z,9.97
2023-04-29T07:30:55.818Z,9.96
2023-04-29T07:31:55.800Z,9.96
2023-04-29T07:32:55.899Z,9.97
2023-04-29T07:33:55.772Z,9.96
2023-04-29T07:34:55.775Z,9.96
2023-04-29T07:35:55.736Z,9.94
2023-04-29T07:36:55.767Z,9.93
2023-04-29T07:37:55.773Z,9.93
2023-04-29T07:38:55.696Z,9.91
2023-04-29T07:39:55.686Z,9.90
2023-04-29T07:40:55.689Z,9.91
2023-04-29T07:41:55.652Z,9.91
2023-04-29T07:42:55.800Z,9.91
2023-04-29T07:43:55.635Z,9.91
2023-04-29T07:44:55.751Z,9.94
2023-04-29T07:45:55.687Z,9.94
2023-04-29T07:46:55.605Z,9.96
2023-04-29T07:47:55.588Z,9.96
2023-04-29T07:48:55.640Z,9.96
2023-04-29T07:49:55.554Z,9.94
2023-04-29T07:50:55.543Z,9.94
2023-04-29T07:51:55.536Z,9.94
2023-04-29T07:52:55.524Z,9.94
2023-04-29T07:53:55.524Z,9.96
2023-04-29T07:54:55.494Z,9.96
2023-04-29T07:55:55.482Z,9.94
2023-04-29T07:56:55.460Z,9.96
2023-04-29T07:57:55.439Z,9.96
2023-04-29T07:58:55.426Z,9.96
2023-04-29T07:59:55.445Z,9.96
2023-04-29T08:00:55.414Z,9.97
2023-04-29T08:01:55.382Z,9.96
2023-04-29T08:02:55.582Z,9.96
2023-04-29T08:03:55.659Z,9.96
2023-04-29T08:04:56.013Z,9.96
2023-04-29T08:05:55.407Z,9.94
2023-04-29T08:06:55.346Z,9.94
2023-04-29T08:07:55.311Z,9.96
2023-04-29T08:08:55.305Z,9.94
2023-04-29T08:09:55.310Z,9.96
2023-04-29T08:10:55.330Z,9.96
2023-04-29T08:11:55.265Z,9.97
2023-04-29T08:12:55.257Z,9.96
2023-04-29T08:13:55.229Z,9.97
2023-04-29T08:14:55.346Z,9.97
2023-04-29T08:15:55.266Z,9.97
2023-04-29T08:16:55.228Z,9.96
2023-04-29T08:17:55.242Z,9.93
2023-04-29T08:18:55.198Z,9.94
2023-04-29T08:19:55.293Z,9.94
2023-04-29T08:20:55.162Z,9.94
2023-04-29T08:21:55.128Z,9.94
2023-04-29T08:22:55.119Z,9.94
2023-04-29T08:23:55.109Z,9.96
2023-04-29T08:24:55.183Z,9.94
2023-04-29T08:25:55.097Z,9.96
2023-04-29T08:26:55.057Z,9.96
2023-04-29T08:27:55.049Z,9.96
2023-04-29T08:28:55.096Z,9.96
2023-04-29T08:29:55.022Z,9.97
2023-04-29T08:30:55.010Z,9.96
2023-04-29T08:31:55.091Z,9.97
2023-04-29T08:32:55.035Z,9.97
2023-04-29T08:33:54.977Z,9.96
2023-04-29T08:34:55.260Z,9.94
2023-04-29T08:35:55.029Z,9.94
2023-04-29T08:36:54.996Z,9.93
2023-04-29T08:37:54.954Z,9.93
2023-04-29T08:38:54.900Z,9.93
2023-04-29T08:39:54.881Z,9.94
2023-04-29T08:40:54.887Z,9.94
2023-04-29T08:41:54.872Z,9.94
2023-04-29T08:42:54.865Z,9.94
2023-04-29T08:43:54.842Z,9.91
2023-04-29T08:44:55.004Z,9.93
2023-04-29T08:45:54.855Z,9.93
2023-04-29T08:46:54.799Z,9.94
2023-04-29T08:47:54.974Z,9.94
2023-04-29T08:48:54.791Z,9.93
2023-04-29T08:49:54.762Z,9.94
2023-04-29T08:50:54.753Z,9.96
2023-04-29T08:51:54.736Z,9.96
2023-04-29T08:52:54.729Z,9.94
2023-04-29T08:53:54.735Z,9.97
2023-04-29T08:54:54.935Z,9.96
2023-04-29T08:55:54.675Z,9.93
2023-04-29T08:56:54.660Z,9.93
2023-04-29T08:57:54.667Z,9.93
2023-04-29T08:58:54.976Z,9.93
2023-04-29T08:59:54.670Z,9.94
2023-04-29T09:00:54.704Z,9.96
2023-04-29T09:01:54.609Z,9.97
2023-04-29T09:02:54.849Z,9.99
2023-04-29T09:03:54.765Z,10.01
2023-04-29T09:04:55.117Z,9.99
2023-04-29T09:05:54.543Z,10.01
2023-04-29T09:06:54.533Z,10.01
2023-04-29T09:07:54.529Z,10.02
2023-04-29T09:08:54.510Z,10.02
2023-04-29T09:09:54.502Z,10.02
2023-04-29T09:10:54.500Z,10.04
2023-04-29T09:11:54.472Z,10.01
2023-04-29T09:12:54.452Z,9.99
2023-04-29T09:13:54.458Z,9.99
2023-04-29T09:14:54.726Z,10.01
2023-04-29T09:15:54.448Z,10.01
2023-04-29T09:16:54.442Z,9.99
2023-04-29T09:17:54.448Z,9.99
2023-04-29T09:18:54.425Z,9.97
2023-04-29T09:19:54.366Z,9.97
2023-04-29T09:20:54.378Z,9.99
2023-04-29T09:21:54.349Z,10.01
2023-04-29T09:22:54.326Z,10.04
2023-04-29T09:23:54.319Z,10.05
2023-04-29T09:24:54.527Z,10.08
2023-04-29T09:25:54.300Z,10.09
2023-04-29T09:26:54.276Z,10.14
2023-04-29T09:27:54.400Z,10.14
2023-04-29T09:28:54.349Z,10.17
2023-04-29T09:29:54.236Z,10.15
2023-04-29T09:30:54.222Z,10.17
2023-04-29T09:31:54.245Z,10.17
2023-04-29T09:32:54.214Z,10.18
2023-04-29T09:33:54.392Z,10.20
2023-04-29T09:34:54.568Z,10.18
2023-04-29T09:35:54.150Z,10.17
2023-04-29T09:36:54.159Z,10.18
2023-04-29T09:37:54.134Z,10.20
2023-04-29T09:38:54.154Z,10.22
2023-04-29T09:39:54.110Z,10.25
2023-04-29T09:40:59.519Z,10.26
2023-04-29T09:41:55.182Z,10.27
2023-04-29T09:42:54.061Z,10.29
2023-04-29T09:43:54.090Z,10.29
2023-04-29T09:44:54.256Z,10.30
2023-04-29T09:45:54.092Z,10.33
2023-04-29T09:46:54.006Z,10.36
2023-04-29T09:47:54.043Z,10.38
2023-04-29T09:48:54.110Z,10.44
2023-04-29T09:49:53.993Z,10.45
2023-04-29T09:50:53.969Z,10.47
2023-04-29T09:51:53.962Z,10.51
2023-04-29T09:52:53.936Z,10.52
2023-04-29T09:53:53.940Z,10.55
2023-04-29T09:54:54.190Z,10.59
2023-04-29T09:55:53.890Z,10.61
2023-04-29T09:56:53.902Z,10.64
2023-04-29T09:57:53.870Z,10.64
2023-04-29T09:58:53.852Z,10.67
2023-04-29T09:59:53.849Z,10.68
2023-04-29T10:00:53.816Z,10.70
2023-04-29T10:01:54.112Z,10.73
2023-04-29T10:02:53.873Z,10.73
2023-04-29T10:03:53.824Z,10.78
2023-04-29T10:04:54.260Z,10.79
2023-04-29T10:05:53.778Z,10.79
2023-04-29T10:06:53.764Z,10.84
2023-04-29T10:07:53.805Z,10.86
2023-04-29T10:08:53.722Z,10.86
2023-04-29T10:09:53.713Z,10.88
2023-04-29T10:10:53.707Z,10.91
2023-04-29T10:11:53.707Z,10.94
2023-04-29T10:12:53.694Z,10.97
2023-04-29T10:13:53.665Z,10.99
2023-04-29T10:14:53.889Z,11.02
2023-04-29T10:15:53.631Z,11.04
2023-04-29T10:16:53.615Z,11.03
2023-04-29T10:17:53.655Z,11.04
2023-04-29T10:18:53.681Z,11.09
2023-04-29T10:19:53.568Z,11.14
2023-04-29T10:20:53.553Z,11.17
2023-04-29T10:21:53.557Z,11.21
2023-04-29T10:22:53.529Z,11.25
2023-04-29T10:23:53.540Z,11.32
2023-04-29T10:24:53.705Z,11.33
2023-04-29T10:25:53.494Z,11.32
2023-04-29T10:26:53.517Z,11.33
2023-04-29T10:27:53.577Z,11.35
2023-04-29T10:28:53.455Z,11.37
2023-04-29T10:29:53.470Z,11.40
2023-04-29T10:30:53.431Z,11.42
2023-04-29T10:31:53.561Z,11.47
2023-04-29T10:32:53.476Z,11.54
2023-04-29T10:33:53.389Z,11.57
2023-04-29T10:34:53.615Z,11.58
2023-04-29T10:35:53.355Z,11.61
2023-04-29T10:36:53.361Z,11.65
2023-04-29T10:37:53.400Z,11.69
2023-04-29T10:38:53.328Z,11.72
2023-04-29T10:39:53.314Z,11.73
2023-04-29T10:40:53.307Z,11.78
2023-04-29T10:41:53.291Z,11.83
2023-04-29T10:42:53.296Z,11.94
2023-04-29T10:43:53.352Z,11.99
2023-04-29T10:44:53.420Z,12.07
2023-04-29T10:45:53.228Z,12.09
2023-04-29T10:46:53.242Z,12.07
2023-04-29T10:47:53.230Z,12.10
2023-04-29T10:48:53.185Z,12.16
2023-04-29T10:49:53.319Z,12.19
2023-04-29T10:50:53.168Z,12.19
2023-04-29T10:51:53.159Z,12.19
2023-04-29T10:52:53.168Z,12.21
2023-04-29T10:53:53.130Z,12.28
2023-04-29T10:54:53.391Z,12.32
2023-04-29T10:55:53.097Z,12.39
2023-04-29T10:56:53.078Z,12.42
2023-04-29T10:57:53.077Z,12.52
2023-04-29T10:58:53.046Z,12.57
2023-04-29T10:59:53.053Z,12.64
2023-04-29T11:00:53.281Z,12.68
2023-04-29T11:01:53.009Z,12.71
2023-04-29T11:02:53.090Z,12.77
2023-04-29T11:03:53.093Z,12.79
2023-04-29T11:04:53.117Z,12.78
2023-04-29T11:05:52.984Z,12.85
2023-04-29T11:06:53.064Z,12.85
2023-04-29T11:07:52.949Z,12.89
2023-04-29T11:08:52.929Z,12.89
2023-04-29T11:09:53.184Z,12.93
2023-04-29T11:10:52.918Z,12.95
2023-04-29T11:11:52.920Z,12.96
2023-04-29T11:12:52.894Z,12.96
2023-04-29T11:13:52.877Z,12.96
2023-04-29T11:14:53.112Z,12.97
2023-04-29T11:15:52.839Z,13.04
2023-04-29T11:16:52.954Z,13.08
2023-04-29T11:17:52.898Z,13.04
2023-04-29T11:18:52.822Z,13.04
2023-04-29T11:19:53.172Z,13.03
2023-04-29T11:20:52.775Z,13.03
2023-04-29T11:21:52.797Z,13.08
2023-04-29T11:22:52.761Z,13.17
2023-04-29T11:23:52.776Z,13.25
2023-04-29T11:24:52.991Z,13.29
2023-04-29T11:25:52.698Z,13.32
2023-04-29T11:26:52.694Z,13.30
2023-04-29T11:27:52.709Z,13.32
2023-04-29T11:28:52.656Z,13.38
2023-04-29T11:29:52.865Z,13.42
2023-04-29T11:30:52.636Z,13.48
2023-04-29T11:31:52.711Z,13.57
2023-04-29T11:32:52.850Z,13.62
2023-04-29T11:33:52.615Z,13.63
2023-04-29T11:34:52.877Z,13.70
2023-04-29T11:35:52.593Z,13.75
2023-04-29T11:36:52.560Z,13.70
2023-04-29T11:37:52.565Z,13.71
2023-04-29T11:38:52.541Z,13.78
2023-04-29T11:39:52.563Z,13.85
2023-04-29T11:40:52.556Z,13.92
2023-04-29T11:41:52.824Z,13.97
2023-04-29T11:42:52.480Z,14.06
2023-04-29T11:43:52.466Z,14.12
2023-04-29T11:44:52.773Z,14.17
2023-04-29T11:45:52.502Z,14.21
2023-04-29T11:46:52.436Z,14.24
2023-04-29T11:47:55.379Z,14.22
2023-04-29T11:48:52.449Z,14.22
2023-04-29T11:49:52.384Z,14.15
2023-04-29T11:50:52.468Z,14.15
2023-04-29T11:51:52.435Z,14.14
2023-04-29T11:52:52.400Z,14.14
2023-04-29T11:53:52.376Z,14.15
2023-04-29T11:54:52.571Z,14.21
2023-04-29T11:55:52.321Z,14.25
2023-04-29T11:56:52.310Z,14.29
2023-04-29T11:57:52.410Z,14.36
2023-04-29T11:58:52.344Z,14.42
2023-04-29T11:59:52.287Z,14.46
2023-04-29T12:00:52.264Z,14.51
2023-04-29T12:01:52.226Z,14.55
2023-04-29T12:02:52.362Z,14.60
2023-04-29T12:03:52.479Z,14.60
2023-04-29T12:04:52.461Z,14.61
2023-04-29T12:05:52.267Z,14.64
2023-04-29T12:06:52.178Z,14.69
2023-04-29T12:07:52.146Z,14.73
2023-04-29T12:08:52.131Z,14.80
2023-04-29T12:09:52.174Z,14.83
2023-04-29T12:10:52.107Z,14.89
2023-04-29T12:11:52.108Z,14.94
2023-04-29T12:12:52.091Z,14.98
2023-04-29T12:13:52.076Z,15.02
2023-04-29T12:14:52.568Z,15.13
2023-04-29T12:15:52.079Z,15.20
2023-04-29T12:16:52.033Z,15.31
2023-04-29T12:17:52.066Z,15.44
2023-04-29T12:18:52.022Z,15.64
2023-04-29T12:19:52.000Z,15.83
2023-04-29T12:20:52.021Z,15.96
2023-04-29T12:21:52.008Z,16.04
2023-04-29T12:22:51.953Z,16.07
2023-04-29T12:23:51.952Z,16.05
2023-04-29T12:24:52.162Z,16.01
2023-04-29T12:25:51.932Z,15.93
2023-04-29T12:26:51.939Z,15.84
2023-04-29T12:27:51.900Z,15.80
2023-04-29T12:28:51.883Z,15.75
2023-04-29T12:29:51.872Z,15.68
2023-04-29T12:30:51.876Z,15.57
2023-04-29T12:31:51.847Z,15.53
2023-04-29T12:32:51.910Z,15.50
2023-04-29T12:33:51.829Z,15.47
2023-04-29T12:34:52.130Z,15.46
2023-04-29T12:35:51.805Z,15.39
2023-04-29T12:36:51.811Z,15.36
2023-04-29T12:37:51.885Z,15.34
2023-04-29T12:38:51.749Z,15.34
2023-04-29T12:39:51.752Z,15.35
2023-04-29T12:40:51.724Z,15.35
2023-04-29T12:41:51.736Z,15.39
2023-04-29T12:42:51.697Z,15.43
2023-04-29T12:43:51.706Z,15.43
2023-04-29T12:44:51.842Z,15.39
2023-04-29T12:45:51.662Z,15.38
2023-04-29T12:46:51.711Z,15.35
2023-04-29T12:47:51.664Z,15.32
2023-04-29T12:48:51.641Z,15.27
2023-04-29T12:49:51.665Z,15.10
2023-04-29T12:50:51.655Z,14.99
2023-04-29T12:51:51.596Z,14.95
2023-04-29T12:52:51.581Z,14.89
2023-04-29T12:53:51.578Z,14.84
2023-04-29T12:54:51.817Z,14.81
2023-04-29T12:55:51.664Z,14.75
2023-04-29T12:56:51.534Z,14.72
2023-04-29T12:57:51.507Z,14.65
2023-04-29T12:58:51.528Z,14.69
2023-04-29T12:59:51.646Z,14.65